Defiance, OH

11:45 PM EST on December 14, 2019 (GMT -0500)
Defiance Memorial | | Change Station

Elev 705 ft 41.34 °N, 84.43 °W | Updated 24 minutes ago

Overcast
Overcast
34 °F
Feels Like 27 °F
N
8
Wind Variable Wind from WNW

Today
High -- | Low -- °F
--% Chance of Precip.
Yesterday
High -- | Low -- °F
Precip. -- in
Pressure 29.76 in
Visibility 10.0 miles
Clouds Scattered Clouds 2800 ft
Overcast 3900 ft
Windchill 27 °F
Dew Point 26 °F
Humidity 73%
Rainfall 0.00 in
Snow Depth Not available.
7:55 AM 5:08 PM
Waning Gibbous, 90% visible
SPECI KDFI 150421Z AUTO 29007KT 10SM SCT028 OVC039 01/M03 A2976 RMK AO2 T00111033
Pressure 29.76 in
Visibility 10.0 miles
Clouds Scattered Clouds 2800 ft
Overcast 3900 ft
Windchill 27 °F
Dew Point 26 °F
Humidity 73%
Rainfall 0.00 in
Snow Depth Not available.
7:55 AM 5:08 PM
Waning Gibbous, 90% visible
SPECI KDFI 150421Z AUTO 29007KT 10SM SCT028 OVC039 01/M03 A2976 RMK AO2 T00111033

Get Severe Weather Alerts

Thanks for signing up!

Be on the lookout for a verification email in your inbox.

You'll start receiving the daily forecast at 6 AM.

×

10-Day Weather Forecast

Almanac

Astronomy

Dec. 14, 2019 Rise Set
Actual Time
Civil Twilight
Nautical Twilight
Astronomical Twilight
Moon
Length of Visible Light
Length of Day
Tomorrow will be .
, % of the Moon is Illuminated

Today's Extremes

State Highs State Lows

Community

WunderPhotos

Category 6

Welcome to Category 6. This is the collective home for Weather Underground's featured writeups by Dr. Jeff Masters (right), Bob Henson (left), Chris Burt, and other regular contributors.

Nearby

Air Quality

  Air Quality AQ Index Pollutant
Not available.

Snow Depth

Station Depth Elevation

Earthquake Activity

City Distance Mag. Time & Date
Minimum magnitude displayed is 2.5.

Coastal Water Temperatures

Place Temperature

Stations

Nearby Weather Stations

Station Location Temp. Windchill Dew Point Humidity Wind Precip. Elev Updated Type
                   

Watches & Warnings

There are currently no watches in effect.